Time;durP1;ratioP1;P1;durP2;ratioP2;P2;SDS_P1;SDS_P2;PMS_P1;PMS_P2;Temp;Humidity;BMP_temperature;BMP_pressure;BME280_temperature;BME280_humidity;BME280_pressure;Samples;Min_cycle;Max_cycle;Signal;HPM_P1;HPM_P2
2023/03/03 00:01:14;;;;;;;1999.90;999.90;;;0.90;99.90;;;;;;5076006;28;20041;-77
2023/03/03 00:03:40;;;;;;;1999.90;999.90;;;0.90;99.90;;;;;;5060486;28;20515;-77
2023/03/03 00:06:09;;;;;;;1999.90;999.90;;;1.00;99.90;;;;;;5055474;28;20033;-77
2023/03/03 00:08:34;;;;;;;1999.90;999.90;;;0.80;99.90;;;;;;5054272;28;20499;-77
2023/03/03 00:11:02;;;;;;;1999.90;999.90;;;0.70;99.90;;;;;;5055586;28;20045;-77
2023/03/03 00:13:29;;;;;;;1999.90;999.90;;;0.70;99.90;;;;;;5055555;28;20025;-77
2023/03/03 00:16:14;;;;;;;1999.90;999.90;;;0.60;99.90;;;;;;5054999;28;20057;-77
2023/03/03 00:18:45;;;;;;;1999.90;999.90;;;0.60;99.90;;;;;;5055517;28;20029;-77
2023/03/03 00:21:54;;;;;;;1999.90;999.90;;;0.50;99.90;;;;;;5055252;28;20138;-77
2023/03/03 00:24:47;;;;;;;1999.90;999.90;;;0.50;99.90;;;;;;5073441;28;20050;-77
2023/03/03 00:27:20;;;;;;;1999.90;999.90;;;0.40;99.90;;;;;;5053804;28;20035;-77
2023/03/03 00:29:59;;;;;;;1999.90;999.90;;;0.30;99.90;;;;;;5053878;28;20040;-77
2023/03/03 00:32:37;;;;;;;1999.90;999.90;;;0.40;99.90;;;;;;5057840;28;20053;-77
2023/03/03 00:35:23;;;;;;;1999.90;999.90;;;0.40;99.90;;;;;;5075209;28;20035;-77
2023/03/03 00:37:55;;;;;;;1999.90;999.90;;;0.30;99.90;;;;;;5071258;28;20029;-77
2023/03/03 00:40:32;;;;;;;1999.90;999.90;;;0.20;99.90;;;;;;5069914;28;20098;-77
2023/03/03 00:42:59;;;;;;;1999.90;999.90;;;0.10;99.90;;;;;;5075441;28;20037;-77
2023/03/03 00:45:42;;;;;;;1999.90;999.90;;;0.00;99.90;;;;;;5074828;28;20029;-77
2023/03/03 00:48:37;;;;;;;1999.90;999.90;;;0.00;99.90;;;;;;5075432;28;20036;-77
2023/03/03 00:51:25;;;;;;;1999.90;999.90;;;0.00;99.90;;;;;;5070979;28;20078;-76
2023/03/03 00:53:51;;;;;;;1999.90;999.90;;;-0.10;99.90;;;;;;5074696;28;20406;-77
2023/03/03 00:56:16;;;;;;;1999.90;999.90;;;-0.10;99.90;;;;;;5075020;28;20037;-77
2023/03/03 00:58:44;;;;;;;1999.90;999.90;;;-0.10;99.90;;;;;;5074812;28;20421;-77
2023/03/03 01:01:10;;;;;;;1999.90;999.90;;;-0.10;99.90;;;;;;5075131;28;20027;-77
2023/03/03 01:03:36;;;;;;;1999.90;999.90;;;-0.10;99.90;;;;;;5074896;28;20098;-77
2023/03/03 01:06:01;;;;;;;1999.90;999.90;;;-0.10;99.90;;;;;;5074728;28;20029;-77
2023/03/03 01:08:27;;;;;;;1999.90;999.90;;;-0.10;99.90;;;;;;5059569;28;20041;-77
2023/03/03 01:10:55;;;;;;;1999.90;999.90;;;-0.10;99.90;;;;;;5054965;28;20033;-77
2023/03/03 01:13:25;;;;;;;1999.90;999.90;;;-0.10;99.90;;;;;;5053365;28;20048;-77
2023/03/03 01:15:51;;;;;;;1999.90;999.90;;;-0.20;99.90;;;;;;5052930;28;20063;-77
2023/03/03 01:18:16;;;;;;;1999.90;999.90;;;-0.20;99.90;;;;;;5053729;28;20048;-77
2023/03/03 01:20:42;;;;;;;1999.90;999.90;;;-0.30;99.90;;;;;;5053311;28;20041;-77
2023/03/03 01:23:08;;;;;;;1999.90;999.90;;;-0.20;99.90;;;;;;5054959;28;20483;-77
2023/03/03 01:25:34;;;;;;;1999.90;999.90;;;-0.20;99.90;;;;;;5054295;28;20740;-77
2023/03/03 01:27:59;;;;;;;1999.90;999.90;;;-0.30;99.90;;;;;;5054731;28;20038;-77
2023/03/03 01:30:25;;;;;;;1999.90;999.90;;;-0.20;99.90;;;;;;5054772;28;20434;-77
2023/03/03 01:32:51;;;;;;;1999.90;999.90;;;-0.20;99.90;;;;;;5054780;28;20044;-77
2023/03/03 01:35:17;;;;;;;1999.90;999.90;;;-0.30;99.90;;;;;;5054218;28;20398;-77
2023/03/03 01:37:43;;;;;;;1999.90;999.90;;;-0.30;99.90;;;;;;5054676;28;20040;-77
2023/03/03 01:40:19;;;;;;;1999.90;999.90;;;-0.30;99.90;;;;;;5074089;28;20037;-77
2023/03/03 01:42:44;;;;;;;1999.90;999.90;;;-0.40;99.90;;;;;;5074773;28;20072;-77
2023/03/03 01:45:23;;;;;;;1999.90;999.90;;;-0.40;99.90;;;;;;5074166;28;20061;-77
2023/03/03 01:48:01;;;;;;;1999.90;999.90;;;-0.50;99.90;;;;;;5074603;28;20057;-77
2023/03/03 01:50:36;;;;;;;1999.90;999.90;;;-0.40;99.90;;;;;;5074764;28;20060;-77
2023/03/03 01:53:05;;;;;;;1999.90;999.90;;;-0.50;99.90;;;;;;5074600;28;20529;-77
2023/03/03 01:55:38;;;;;;;1999.90;999.90;;;-0.40;99.90;;;;;;5074024;28;20041;-77
2023/03/03 01:58:12;;;;;;;1999.90;999.90;;;-0.50;99.90;;;;;;5072746;28;20185;-77
2023/03/03 02:00:41;;;;;;;1999.90;999.90;;;-0.50;99.90;;;;;;5074581;28;20040;-77
2023/03/03 02:03:08;;;;;;;1999.90;999.90;;;-0.60;99.90;;;;;;5072831;28;20047;-77
2023/03/03 02:05:34;;;;;;;1999.90;999.90;;;-0.70;99.90;;;;;;5074654;28;20037;-77
2023/03/03 02:08:01;;;;;;;1999.90;999.90;;;-0.70;99.90;;;;;;5077980;28;20491;-77
2023/03/03 02:10:28;;;;;;;1999.90;999.90;;;-0.70;99.90;;;;;;5077873;28;20518;-77
2023/03/03 02:12:55;;;;;;;1999.90;999.90;;;-0.70;99.90;;;;;;5077771;28;20037;-77
2023/03/03 02:15:34;;;;;;;1999.90;999.90;;;-0.70;99.90;;;;;;5076926;28;20472;-77
2023/03/03 02:18:13;;;;;;;1999.90;999.90;;;-0.80;99.90;;;;;;5078928;28;20801;-77
2023/03/03 02:21:09;;;;;;;1999.90;999.90;;;-0.80;99.90;;;;;;5078329;28;20063;-77
2023/03/03 02:23:49;;;;;;;1999.90;999.90;;;-0.90;99.90;;;;;;5075499;28;20072;-77
2023/03/03 02:26:23;;;;;;;1999.90;999.90;;;-0.80;99.90;;;;;;5055715;28;20033;-77
2023/03/03 02:28:49;;;;;;;1999.90;999.90;;;-0.90;99.90;;;;;;5059604;28;20044;-76
2023/03/03 02:31:18;;;;;;;1999.90;999.90;;;-1.00;99.90;;;;;;5071827;28;20030;-76
2023/03/03 02:33:46;;;;;;;1999.90;999.90;;;-0.90;99.90;;;;;;5068893;28;20048;-77
2023/03/03 02:36:24;;;;;;;1999.90;999.90;;;-0.90;99.90;;;;;;5064477;28;20033;-77
2023/03/03 02:39:08;;;;;;;1999.90;999.90;;;-1.00;99.90;;;;;;5075901;28;20435;-76
2023/03/03 02:41:45;;;;;;;1999.90;999.90;;;-1.10;99.90;;;;;;5075864;28;20859;-77
2023/03/03 02:44:20;;;;;;;1999.90;999.90;;;-1.10;99.90;;;;;;5077072;28;20033;-77
2023/03/03 02:46:48;;;;;;;1999.90;999.90;;;-1.10;99.90;;;;;;5076893;28;20040;-77
2023/03/03 02:49:18;;;;;;;1999.90;999.90;;;-1.10;99.90;;;;;;5075976;28;20807;-77
2023/03/03 02:51:44;;;;;;;1999.90;999.90;;;-1.10;99.90;;;;;;5076759;28;20465;-76
2023/03/03 02:54:11;;;;;;;1999.90;999.90;;;-1.00;99.90;;;;;;5078073;28;20029;-77
2023/03/03 02:56:37;;;;;;;1999.90;999.90;;;-1.10;99.90;;;;;;5070356;28;20052;-76
2023/03/03 02:59:04;;;;;;;1999.90;999.90;;;-1.10;99.90;;;;;;5060825;28;20041;-76
2023/03/03 03:01:30;;;;;;;1999.90;999.90;;;-1.10;99.90;;;;;;5081120;28;20029;-76
2023/03/03 03:03:57;;;;;;;1999.90;999.90;;;-1.10;99.90;;;;;;5079273;28;20037;-76
2023/03/03 03:06:23;;;;;;;1999.90;999.90;;;-1.10;99.90;;;;;;5081911;28;20029;-76
2023/03/03 03:08:48;;;;;;;1999.90;999.90;;;-1.20;99.90;;;;;;5081459;28;20033;-76
2023/03/03 03:11:14;;;;;;;1999.90;999.90;;;-1.10;99.90;;;;;;5079062;28;20530;-76
2023/03/03 03:13:40;;;;;;;1999.90;999.90;;;-1.20;99.90;;;;;;5078816;28;20032;-77
2023/03/03 03:16:05;;;;;;;1999.90;999.90;;;-1.20;99.90;;;;;;5078578;28;20044;-76
2023/03/03 03:18:31;;;;;;;1999.90;999.90;;;-1.20;99.90;;;;;;5068163;28;20038;-76
2023/03/03 03:21:03;;;;;;;1999.90;999.90;;;-1.30;99.90;;;;;;5059923;28;20061;-77
2023/03/03 03:23:29;;;;;;;1999.90;999.90;;;-1.30;99.90;;;;;;5060325;28;20049;-76
2023/03/03 03:25:55;;;;;;;1999.90;999.90;;;-1.40;99.90;;;;;;5061731;28;20037;-76
2023/03/03 03:28:20;;;;;;;1999.90;999.90;;;-1.30;99.90;;;;;;5060354;28;20065;-76
2023/03/03 03:30:46;;;;;;;1999.90;999.90;;;-1.40;99.90;;;;;;5061251;28;20112;-76
2023/03/03 03:33:12;;;;;;;1999.90;999.90;;;-1.40;99.90;;;;;;5058532;28;20465;-76
2023/03/03 03:35:41;;;;;;;1999.90;999.90;;;-1.40;99.90;;;;;;5074511;28;20056;-76
2023/03/03 03:38:07;;;;;;;1999.90;999.90;;;-1.50;99.90;;;;;;5082136;28;20092;-77
2023/03/03 03:40:32;;;;;;;1999.90;999.90;;;-1.60;99.90;;;;;;5079193;28;20060;-76
2023/03/03 03:42:58;;;;;;;1999.90;999.90;;;-1.60;99.90;;;;;;5081582;28;20041;-76
2023/03/03 03:45:23;;;;;;;1999.90;999.90;;;-1.60;99.90;;;;;;5066933;28;20033;-77
2023/03/03 03:47:49;;;;;;;1999.90;999.90;;;-1.60;99.90;;;;;;5061648;28;20036;-76
2023/03/03 03:50:14;;;;;;;1999.90;999.90;;;-1.60;99.90;;;;;;5060774;28;20033;-77
2023/03/03 03:52:40;;;;;;;1999.90;999.90;;;-1.60;99.90;;;;;;5077318;28;20041;-76
2023/03/03 03:55:06;;;;;;;1999.90;999.90;;;-1.60;99.90;;;;;;5077944;28;20051;-77
2023/03/03 03:57:32;;;;;;;1999.90;999.90;;;-1.60;99.90;;;;;;5081390;28;20037;-76
2023/03/03 03:59:57;;;;;;;1999.90;999.90;;;-1.50;99.90;;;;;;5074609;28;20398;-76
2023/03/03 04:02:23;;;;;;;1999.90;999.90;;;-1.50;99.90;;;;;;5058758;28;20045;-76
2023/03/03 04:04:48;;;;;;;1999.90;999.90;;;-1.60;99.90;;;;;;5055213;28;20033;-77
2023/03/03 04:07:14;;;;;;;1999.90;999.90;;;-1.70;99.90;;;;;;5055770;28;20421;-76
2023/03/03 04:09:39;;;;;;;1999.90;999.90;;;-1.60;99.90;;;;;;5055769;28;20036;-76
2023/03/03 04:12:05;;;;;;;1999.90;999.90;;;-1.60;99.90;;;;;;5069481;28;20063;-76
2023/03/03 04:14:31;;;;;;;1999.90;999.90;;;-1.70;99.90;;;;;;5075203;28;20057;-77
2023/03/03 04:16:56;;;;;;;1999.90;999.90;;;-1.60;99.90;;;;;;5076187;28;20478;-76
2023/03/03 04:19:22;;;;;;;1999.90;999.90;;;-1.60;99.90;;;;;;5075637;28;20033;-76
2023/03/03 04:21:47;;;;;;;1999.90;999.90;;;-1.70;99.90;;;;;;5075688;28;20041;-75
2023/03/03 04:24:13;;;;;;;1999.90;999.90;;;-1.70;99.90;;;;;;5073904;28;20044;-75
2023/03/03 04:26:38;;;;;;;1999.90;999.90;;;-1.60;99.90;;;;;;5067866;28;20052;-75
2023/03/03 04:29:04;;;;;;;1999.90;999.90;;;-1.60;99.90;;;;;;5054952;28;20458;-75
2023/03/03 04:31:30;;;;;;;1999.90;999.90;;;-1.60;99.90;;;;;;5063532;28;20528;-75
2023/03/03 04:33:56;;;;;;;1999.90;999.90;;;-1.50;99.90;;;;;;5074992;28;20067;-75
2023/03/03 04:36:21;;;;;;;1999.90;999.90;;;-1.60;99.90;;;;;;5075389;28;20565;-75
2023/03/03 04:38:47;;;;;;;1999.90;999.90;;;-1.60;99.90;;;;;;5089703;28;20063;-76
2023/03/03 04:41:13;;;;;;;1999.90;999.90;;;-1.60;99.90;;;;;;5091591;28;20079;-76
2023/03/03 04:43:39;;;;;;;1999.90;999.90;;;-1.40;99.90;;;;;;5075597;28;20091;-76
2023/03/03 04:46:05;;;;;;;1999.90;999.90;;;-1.60;99.90;;;;;;5075127;28;20029;-76
2023/03/03 04:48:30;;;;;;;1999.90;999.90;;;-1.70;99.90;;;;;;5075498;28;20450;-75
2023/03/03 04:50:56;;;;;;;1999.90;999.90;;;-1.80;99.90;;;;;;5075441;28;20060;-75
2023/03/03 04:53:21;;;;;;;1999.90;999.90;;;-1.80;99.90;;;;;;5065703;28;20133;-75
2023/03/03 04:55:52;;;;;;;1999.90;999.90;;;-1.80;99.90;;;;;;5056045;28;20060;-75
2023/03/03 04:58:18;;;;;;;1999.90;999.90;;;-1.70;99.90;;;;;;5073902;28;20037;-75
2023/03/03 05:00:45;;;;;;;1999.90;999.90;;;-1.70;99.90;;;;;;5073819;28;20088;-75
2023/03/03 05:03:11;;;;;;;1999.90;999.90;;;-1.70;99.90;;;;;;5075034;28;20055;-75
2023/03/03 05:05:37;;;;;;;1999.90;999.90;;;-1.70;99.90;;;;;;5074554;28;20031;-76
2023/03/03 05:08:02;;;;;;;1999.90;999.90;;;-1.70;99.90;;;;;;5073323;28;20037;-75
2023/03/03 05:10:28;;;;;;;1999.90;999.90;;;-1.70;99.90;;;;;;5075225;28;20040;-75
2023/03/03 05:12:54;;;;;;;1999.90;999.90;;;-1.70;99.90;;;;;;5054000;28;20033;-75
2023/03/03 05:15:20;;;;;;;1999.90;999.90;;;-1.60;99.90;;;;;;5054229;28;20746;-75
2023/03/03 05:17:45;;;;;;;1999.90;999.90;;;-1.60;99.90;;;;;;5053329;28;20034;-75
2023/03/03 05:20:12;;;;;;;1999.90;999.90;;;-1.70;99.90;;;;;;5054844;28;20025;-75
2023/03/03 05:22:37;;;;;;;1999.90;999.90;;;-1.70;99.90;;;;;;5054602;28;20499;-75
2023/03/03 05:25:04;;;;;;;1999.90;999.90;;;-1.80;99.90;;;;;;5057849;28;20044;-75
2023/03/03 05:27:29;;;;;;;1999.90;999.90;;;-1.90;99.90;;;;;;5074742;28;20032;-75
2023/03/03 05:29:55;;;;;;;1999.90;999.90;;;-1.90;99.90;;;;;;5075007;28;20033;-75
2023/03/03 05:32:20;;;;;;;1999.90;999.90;;;-2.00;99.90;;;;;;5061205;28;20033;-76
2023/03/03 05:34:46;;;;;;;1999.90;999.90;;;-2.00;99.90;;;;;;5054660;28;20383;-76
2023/03/03 05:37:12;;;;;;;1999.90;999.90;;;-2.00;99.90;;;;;;5062897;28;20487;-76
2023/03/03 05:39:37;;;;;;;1999.90;999.90;;;-2.00;99.90;;;;;;5055307;28;20030;-75
2023/03/03 05:42:03;;;;;;;1999.90;999.90;;;-2.00;99.90;;;;;;5057077;28;20096;-75
2023/03/03 05:44:29;;;;;;;1999.90;999.90;;;-2.00;99.90;;;;;;5055282;28;20827;-75
2023/03/03 05:46:56;;;;;;;1999.90;999.90;;;-2.00;99.90;;;;;;5057129;28;20159;-75
2023/03/03 05:49:22;;;;;;;1999.90;999.90;;;-2.00;99.90;;;;;;5058170;28;20674;-76
2023/03/03 05:51:47;;;;;;;1999.90;999.90;;;-2.00;99.90;;;;;;5055981;28;20188;-75
2023/03/03 05:54:13;;;;;;;1999.90;999.90;;;-2.10;99.90;;;;;;5056195;28;20037;-75
2023/03/03 05:56:38;;;;;;;1999.90;999.90;;;-2.10;99.90;;;;;;5057143;28;20028;-76
2023/03/03 05:59:04;;;;;;;1999.90;999.90;;;-2.20;99.90;;;;;;5057181;28;20061;-75
2023/03/03 06:01:29;;;;;;;1999.90;999.90;;;-2.30;99.90;;;;;;5055604;28;20043;-75
2023/03/03 06:03:55;;;;;;;1999.90;999.90;;;-2.30;99.90;;;;;;5056448;28;20072;-75
2023/03/03 06:06:20;;;;;;;1999.90;999.90;;;-2.30;99.90;;;;;;5055813;28;20486;-75
2023/03/03 06:08:46;;;;;;;1999.90;999.90;;;-2.20;99.90;;;;;;5057473;28;20464;-75
2023/03/03 06:11:12;;;;;;;1999.90;999.90;;;-2.20;99.90;;;;;;5056091;28;20025;-76
2023/03/03 06:13:38;;;;;;;1999.90;999.90;;;-2.30;99.90;;;;;;5057200;28;20037;-75
2023/03/03 06:16:04;;;;;;;1999.90;999.90;;;-2.20;99.90;;;;;;5056342;28;20029;-76
2023/03/03 06:18:30;;;;;;;1999.90;999.90;;;-2.20;99.90;;;;;;5057122;28;20406;-75
2023/03/03 06:20:55;;;;;;;1999.90;999.90;;;-2.20;99.90;;;;;;5056934;28;20021;-75
2023/03/03 06:23:21;;;;;;;1999.90;999.90;;;-2.20;99.90;;;;;;5057664;28;20072;-75
2023/03/03 06:25:47;;;;;;;1999.90;999.90;;;-2.10;99.90;;;;;;5057111;28;20833;-76
2023/03/03 06:28:14;;;;;;;1999.90;999.90;;;-2.00;99.90;;;;;;5055020;28;20037;-76
2023/03/03 06:30:39;;;;;;;1999.90;999.90;;;-2.00;99.90;;;;;;5056617;28;20033;-76
2023/03/03 06:33:05;;;;;;;1999.90;999.90;;;-2.00;99.90;;;;;;5056542;28;20049;-75
2023/03/03 06:35:30;;;;;;;1999.90;999.90;;;-2.00;99.90;;;;;;5058080;28;20505;-76
2023/03/03 06:37:56;;;;;;;1999.90;999.90;;;-2.00;99.90;;;;;;5057057;28;20098;-75
2023/03/03 06:40:21;;;;;;;1999.90;999.90;;;-1.90;99.90;;;;;;5061627;28;20053;-77
2023/03/03 06:42:47;;;;;;;1999.90;999.90;;;-1.80;99.90;;;;;;5051913;28;20084;-77
2023/03/03 06:45:13;;;;;;;1999.90;999.90;;;-1.80;99.90;;;;;;5052694;28;20037;-76
2023/03/03 06:47:39;;;;;;;1999.90;999.90;;;-1.80;99.90;;;;;;5055575;28;20100;-76
2023/03/03 06:50:05;;;;;;;1999.90;999.90;;;-1.70;99.90;;;;;;5055979;28;20038;-74
2023/03/03 06:52:31;;;;;;;1999.90;999.90;;;-1.60;99.90;;;;;;5073680;28;20029;-77
2023/03/03 06:54:59;;;;;;;1999.90;999.90;;;-1.50;99.90;;;;;;5072730;28;20037;-76
2023/03/03 06:57:32;;;;;;;1999.90;999.90;;;-1.50;99.90;;;;;;5052678;28;20045;-76
2023/03/03 07:00:19;;;;;;;1999.90;999.90;;;-1.40;99.90;;;;;;5055204;28;20112;-75
2023/03/03 07:02:45;;;;;;;1999.90;999.90;;;-1.40;99.90;;;;;;5055137;28;20060;-76
2023/03/03 07:05:16;;;;;;;1999.90;999.90;;;-1.40;99.90;;;;;;5055016;28;20081;-79
2023/03/03 07:07:42;;;;;;;1999.90;999.90;;;-1.20;99.90;;;;;;5056371;28;20042;-76
2023/03/03 07:10:19;;;;;;;1999.90;999.90;;;-1.20;99.90;;;;;;5055848;28;20112;-76
2023/03/03 07:12:44;;;;;;;1999.90;999.90;;;-1.10;99.90;;;;;;5055088;28;20033;-75
2023/03/03 07:15:16;;;;;;;1999.90;999.90;;;-1.00;99.90;;;;;;5054453;28;20029;-76
2023/03/03 07:17:48;;;;;;;1999.90;999.90;;;-1.00;99.90;;;;;;5053887;28;20041;-77
2023/03/03 07:20:18;;;;;;;1999.90;999.90;;;-1.00;99.90;;;;;;5054480;28;20052;-77
2023/03/03 07:22:44;;;;;;;1999.90;999.90;;;-0.90;99.90;;;;;;5054514;28;20038;-77
2023/03/03 07:25:20;;;;;;;1999.90;999.90;;;-0.90;99.90;;;;;;5075754;28;20025;-76
2023/03/03 07:27:45;;;;;;;1999.90;999.90;;;-0.80;99.90;;;;;;5063737;28;20046;-76
2023/03/03 07:30:11;;;;;;;1999.90;999.90;;;-0.70;99.90;;;;;;5056153;28;20030;-76
2023/03/03 07:32:40;;;;;;;1999.90;999.90;;;-0.70;99.90;;;;;;5055930;28;20065;-77
2023/03/03 07:35:39;;;;;;;1999.90;999.90;;;-0.60;99.90;;;;;;5073183;28;20033;-75
2023/03/03 07:38:30;;;;;;;1999.90;999.90;;;-0.50;99.90;;;;;;5076679;28;20041;-74
2023/03/03 07:40:58;;;;;;;1999.90;999.90;;;-0.40;99.90;;;;;;5076353;28;20032;-75
2023/03/03 07:43:30;;;;;;;1999.90;999.90;;;-0.30;99.90;;;;;;5075078;28;20075;-77
2023/03/03 07:46:33;;;;;;;1999.90;999.90;;;-0.20;99.90;;;;;;5078124;28;20040;-76
2023/03/03 07:48:59;;;;;;;1999.90;999.90;;;-0.20;99.90;;;;;;5076023;28;20033;-73
2023/03/03 07:51:28;;;;;;;1999.90;999.90;;;-0.10;99.90;;;;;;5079375;28;20800;-77
2023/03/03 07:54:14;;;;;;;1999.90;999.90;;;0.00;99.90;;;;;;5078414;28;20033;-80
2023/03/03 07:56:39;;;;;;;1999.90;999.90;;;0.10;99.90;;;;;;5077130;28;20025;-76
2023/03/03 07:59:23;;;;;;;1999.90;999.90;;;0.10;99.90;;;;;;5075113;28;20037;-76
2023/03/03 08:01:59;;;;;;;1999.90;999.90;;;0.20;99.90;;;;;;5073708;28;20029;-78
2023/03/03 08:04:42;;;;;;;1999.90;999.90;;;0.30;99.90;;;;;;5075178;28;20525;-77
2023/03/03 08:07:16;;;;;;;1999.90;999.90;;;0.40;99.90;;;;;;5075682;28;20041;-76
2023/03/03 08:10:22;;;;;;;1999.90;999.90;;;0.60;99.90;;;;;;5074502;28;20148;-75
2023/03/03 08:12:48;;;;;;;1999.90;999.90;;;0.70;99.90;;;;;;5074871;28;20124;-75
2023/03/03 08:15:22;;;;;;;1999.90;999.90;;;0.80;99.90;;;;;;5074496;28;20147;-76
2023/03/03 08:17:50;;;;;;;1999.90;999.90;;;1.00;99.90;;;;;;5075237;28;20079;-75
2023/03/03 08:20:42;;;;;;;1999.90;999.90;;;1.10;99.90;;;;;;5074815;28;20119;-75
2023/03/03 08:23:08;;;;;;;1999.90;999.90;;;1.20;99.90;;;;;;5059700;28;20691;-77
2023/03/03 08:25:33;;;;;;;1999.90;999.90;;;1.40;99.90;;;;;;5064942;28;20108;-75
2023/03/03 08:27:59;;;;;;;1999.90;999.90;;;1.50;99.90;;;;;;5054646;28;20116;-76
2023/03/03 08:30:24;;;;;;;1999.90;999.90;;;1.60;99.90;;;;;;5064631;28;20149;-76
2023/03/03 08:32:50;;;;;;;1999.90;999.90;;;1.80;99.90;;;;;;5054734;28;20112;-76
2023/03/03 08:35:15;;;;;;;1999.90;999.90;;;1.90;99.90;;;;;;5051857;28;20033;-75
2023/03/03 08:37:41;;;;;;;1999.90;999.90;;;2.10;99.90;;;;;;5070739;28;20068;-76
2023/03/03 08:40:07;;;;;;;1999.90;999.90;;;2.20;99.90;;;;;;5062799;28;20572;-76
2023/03/03 08:42:32;;;;;;;1999.90;999.90;;;2.30;99.90;;;;;;5037378;28;20037;-78
2023/03/03 08:44:58;;;;;;;1999.90;999.90;;;2.40;99.90;;;;;;5035359;28;20040;-78
2023/03/03 08:47:24;;;;;;;1999.90;999.90;;;2.50;99.90;;;;;;5055968;28;20128;-79
2023/03/03 08:49:49;;;;;;;1999.90;999.90;;;2.60;99.90;;;;;;5060689;28;20043;-76
2023/03/03 08:52:15;;;;;;;1999.90;999.90;;;2.70;99.90;;;;;;5078302;28;20384;-82
2023/03/03 08:54:40;;;;;;;1999.90;999.90;;;2.80;99.90;;;;;;5074593;28;20032;-76
2023/03/03 08:57:06;;;;;;;1999.90;999.90;;;2.90;99.90;;;;;;5076111;28;20038;-78
2023/03/03 08:59:36;;;;;;;1999.90;999.90;;;3.10;99.90;;;;;;5079668;28;20076;-80
2023/03/03 09:02:02;;;;;;;1999.90;999.90;;;3.10;99.90;;;;;;5078017;28;20064;-77
2023/03/03 09:04:27;;;;;;;1999.90;999.90;;;3.30;99.90;;;;;;5075820;28;20096;-78
2023/03/03 09:06:53;;;;;;;1999.90;999.90;;;3.30;99.90;;;;;;5095877;27;20076;-82
2023/03/03 09:09:20;;;;;;;1999.90;999.90;;;3.30;99.90;;;;;;5092755;27;20045;-75
2023/03/03 09:11:46;;;;;;;1999.90;999.90;;;3.40;99.90;;;;;;5081726;28;20059;-77
2023/03/03 09:14:17;;;;;;;1999.90;999.90;;;3.50;99.90;;;;;;5070848;28;20091;-72
2023/03/03 09:16:50;;;;;;;1999.90;999.90;;;3.60;99.90;;;;;;5055271;28;20113;-76
2023/03/03 09:19:19;;;;;;;1999.90;999.90;;;3.80;99.90;;;;;;5055071;28;20050;-77
2023/03/03 09:21:44;;;;;;;1999.90;999.90;;;3.90;99.90;;;;;;5055494;28;20033;-78
2023/03/03 09:24:41;;;;;;;1999.90;999.90;;;4.00;99.90;;;;;;5075127;28;20136;-77
2023/03/03 09:27:18;;;;;;;1999.90;999.90;;;4.20;99.90;;;;;;5065446;28;20044;-76
2023/03/03 09:29:43;;;;;;;1999.90;999.90;;;4.30;99.90;;;;;;5074993;28;20402;-77
2023/03/03 09:32:20;;;;;;;1999.90;999.90;;;4.40;99.90;;;;;;5075470;28;20041;-76
2023/03/03 09:34:46;;;;;;;1999.90;999.90;;;4.50;99.90;;;;;;5055383;28;20156;-80
2023/03/03 09:37:22;;;;;;;1999.90;999.90;;;4.70;99.90;;;;;;5054304;28;20079;-73
2023/03/03 09:39:52;;;;;;;1999.90;999.90;;;4.80;99.90;;;;;;5057147;28;20792;-82
2023/03/03 09:42:55;;;;;;;1999.90;999.90;;;4.90;99.90;;;;;;5060500;28;20041;-75
2023/03/03 09:46:05;;;;;;;1999.90;999.90;;;5.00;99.90;;;;;;5020022;28;20671;-77
2023/03/03 09:48:36;;;;;;;1999.90;999.90;;;5.10;99.90;;;;;;5015179;28;20049;-77
2023/03/03 09:51:26;;;;;;;1999.90;999.90;;;5.10;99.90;;;;;;5045166;28;20545;-77
2023/03/03 09:54:19;;;;;;;1999.90;999.90;;;5.10;99.90;;;;;;5064811;28;20041;-78
2023/03/03 09:57:22;;;;;;;1999.90;999.90;;;5.30;99.90;;;;;;5054808;28;20029;-76
2023/03/03 10:00:10;;;;;;;1999.90;999.90;;;5.30;99.90;;;;;;5052816;28;20034;-74
2023/03/03 10:03:14;;;;;;;1999.90;999.90;;;5.30;99.90;;;;;;5052205;28;20042;-76
2023/03/03 10:06:20;;;;;;;1999.90;999.90;;;5.40;99.90;;;;;;5049411;28;20053;-75
2023/03/03 10:09:13;;;;;;;1999.90;999.90;;;5.50;99.90;;;;;;5030074;28;20579;-76
2023/03/03 10:12:04;;;;;;;1999.90;999.90;;;5.60;99.90;;;;;;5074145;28;20037;-78
2023/03/03 10:14:57;;;;;;;1999.90;999.90;;;5.60;99.90;;;;;;5073754;28;20045;-79
2023/03/03 10:17:51;;;;;;;1999.90;999.90;;;5.60;99.90;;;;;;5076908;22;20056;-77
2023/03/03 10:20:46;;;;;;;1999.90;999.90;;;5.80;99.90;;;;;;5074175;28;20116;-77
2023/03/03 10:23:37;;;;;;;1999.90;999.90;;;6.00;99.90;;;;;;5072759;28;20171;-78
2023/03/03 10:28:52;;;;;;;1999.90;999.90;;;6.20;99.90;;;;;;5193358;22;20052;-77
2023/03/03 10:31:43;;;;;;;1999.90;999.90;;;6.30;99.90;;;;;;5075628;28;20081;-78
2023/03/03 10:34:27;;;;;;;1999.90;999.90;;;6.30;99.90;;;;;;5056982;28;20037;-78
2023/03/03 10:37:31;;;;;;;1999.90;999.90;;;6.20;99.90;;;;;;5056350;28;20042;-78
2023/03/03 10:39:56;;;;;;;1999.90;999.90;;;6.50;99.90;;;;;;5056509;28;20117;-78
2023/03/03 10:42:40;;;;;;;1999.90;999.90;;;6.50;99.90;;;;;;5069524;28;20116;-78
2023/03/03 10:45:34;;;;;;;1999.90;999.90;;;6.70;99.90;;;;;;5056997;28;20029;-78
2023/03/03 10:48:31;;;;;;;1999.90;999.90;;;6.80;99.90;;;;;;5066445;28;20128;-77
2023/03/03 10:51:24;;;;;;;1999.90;999.90;;;7.00;99.90;;;;;;5078117;28;20560;-78
2023/03/03 10:54:06;;;;;;;1999.90;999.90;;;7.10;99.90;;;;;;5078090;28;20037;-78
2023/03/03 10:56:46;;;;;;;1999.90;999.90;;;7.20;99.90;;;;;;5073990;28;20037;-78
2023/03/03 10:59:39;;;;;;;1999.90;999.90;;;7.30;99.90;;;;;;5077142;28;20100;-78
2023/03/03 11:02:27;;;;;;;1999.90;999.90;;;7.30;99.90;;;;;;5078352;28;20450;-78
2023/03/03 11:05:07;;;;;;;1999.90;999.90;;;7.30;99.90;;;;;;5077554;28;20425;-78
2023/03/03 11:07:43;;;;;;;1999.90;999.90;;;7.40;99.90;;;;;;5078507;28;20112;-78
2023/03/03 11:10:17;;;;;;;1999.90;999.90;;;7.50;99.90;;;;;;5077796;28;20073;-78
2023/03/03 11:12:52;;;;;;;1999.90;999.90;;;7.60;99.90;;;;;;5075872;28;20045;-78
2023/03/03 11:15:54;;;;;;;1999.90;999.90;;;7.80;99.90;;;;;;5078546;28;20037;-79
2023/03/03 11:18:34;;;;;;;1999.90;999.90;;;7.80;98.70;;;;;;5064373;28;20041;-79
2023/03/03 11:21:14;;;;;;;1999.90;999.90;;;7.80;99.40;;;;;;5071476;28;20049;-80
2023/03/03 11:24:00;;;;;;;1999.90;999.90;;;7.90;98.70;;;;;;5085420;28;20044;-81
2023/03/03 11:27:04;;;;;;;1999.90;999.90;;;8.00;98.30;;;;;;5082072;28;20486;-84
2023/03/03 11:29:51;;;;;;;1999.90;999.90;;;8.00;98.40;;;;;;5070104;28;20049;-81
2023/03/03 11:32:47;;;;;;;1999.90;999.90;;;8.10;98.00;;;;;;5084367;28;20529;-82
2023/03/03 11:35:25;;;;;;;1999.90;999.90;;;8.30;97.60;;;;;;5065394;28;20045;-80
2023/03/03 11:37:59;;;;;;;1999.90;999.90;;;8.30;97.40;;;;;;5084014;28;20025;-82
2023/03/03 11:40:31;;;;;;;1999.90;999.90;;;8.50;97.40;;;;;;5082086;28;20040;-80
2023/03/03 11:43:09;;;;;;;1999.90;999.90;;;8.60;97.10;;;;;;5079280;28;20498;-79
2023/03/03 11:45:45;;;;;;;1999.90;999.90;;;8.40;97.60;;;;;;5087067;28;20067;-80
2023/03/03 11:48:34;;;;;;;1999.90;999.90;;;8.50;96.90;;;;;;5079170;28;20491;-79
2023/03/03 11:51:13;;;;;;;1999.90;999.90;;;8.70;95.90;;;;;;5082222;28;20033;-80
2023/03/03 11:54:22;;;;;;;1999.90;999.90;;;8.70;95.70;;;;;;5056970;28;20495;-77
2023/03/03 11:56:48;;;;;;;1999.90;999.90;;;8.80;95.60;;;;;;5055946;28;20104;-77
2023/03/03 11:59:32;;;;;;;1999.90;999.90;;;8.80;95.70;;;;;;5061522;28;20037;-78
2023/03/03 12:02:24;;;;;;;1999.90;999.90;;;9.00;95.30;;;;;;5070161;28;20029;-76
2023/03/03 12:04:57;;;;;;;1999.90;999.90;;;9.20;93.80;;;;;;5054476;28;20033;-76
2023/03/03 12:07:52;;;;;;;1999.90;999.90;;;9.40;93.70;;;;;;5053858;28;20068;-77
2023/03/03 12:11:02;;;;;;;1999.90;999.90;;;9.50;93.80;;;;;;5068104;28;20037;-76
2023/03/03 12:13:59;;;;;;;1999.90;999.90;;;9.50;93.80;;;;;;5053731;28;20069;-77
2023/03/03 12:16:51;;;;;;;1999.90;999.90;;;9.60;93.30;;;;;;5054331;28;20064;-77
2023/03/03 12:19:31;;;;;;;1999.90;999.90;;;9.70;92.70;;;;;;5055622;28;20495;-77
2023/03/03 12:22:47;;;;;;;1999.90;999.90;;;9.70;93.40;;;;;;5059144;28;20099;-77
2023/03/03 12:25:28;;;;;;;1999.90;999.90;;;9.80;93.70;;;;;;5072702;28;20076;-76
2023/03/03 12:28:20;;;;;;;1999.90;999.90;;;10.10;93.70;;;;;;5072891;28;20037;-77
2023/03/03 12:31:06;;;;;;;1999.90;999.90;;;10.50;92.50;;;;;;5071845;28;20052;-77
2023/03/03 12:33:55;;;;;;;1999.90;999.90;;;10.40;92.60;;;;;;5075777;28;20025;-77
2023/03/03 12:36:54;;;;;;;1999.90;999.90;;;10.70;93.10;;;;;;5063496;28;20041;-78